Sacramento, CA

3:04 AM PST on February 08, 2016 (GMT -0800)
Sacramento Executive | | Change Station
CLOSE
Current Station
Airport
Location: Sacramento,
Elevation: 26 ft
Nearby Weather Stations

Elev 26 ft 38.51 °N, 121.50 °W | Updated 11 minutes ago

Clear
Clear
45 °F
Feels Like 45 °F
N
0
Wind Variable Wind from North

Today
High -- | Low -- °F
--% Chance of Precip.
Yesterday
High -- | Low -- °F
Precip. -- in
Pressure 30.25 in
Visibility 2.0 miles
Clouds Clear
Dew Point 43 °F
Humidity 93%
Rainfall 0.00 in
Snow Depth Not available.
7:05 AM 5:35 PM
Waning Crescent, 0% visible
METAR KSAC 081053Z AUTO 00000KT 2SM BR CLR 07/06 A3025 RMK AO2 SLP243 T00720061
Pressure 30.25 in
Visibility 2.0 miles
Clouds Clear
Dew Point 43 °F
Humidity 93%
Rainfall 0.00 in
Snow Depth Not available.
7:05 AM 5:35 PM
Waning Crescent, 0% visible
METAR KSAC 081053Z AUTO 00000KT 2SM BR CLR 07/06 A3025 RMK AO2 SLP243 T00720061

10-Day Weather Forecast

Almanac

Astronomy

Feb. 08, 2016 Rise Set
Actual Time
Civil Twilight
Nautical Twilight
Astronomical Twilight
Moon
Length of Visible Light
Length of Day
Tomorrow will be .
, % of the Moon is Illuminated

Today's Extremes

State Highs State Lows

Community

WunderPhotos

Upload Photos

1,891,420 photos uploaded!

WunderBlog® & News

Nearby

Air Quality

  Air Quality AQ Index Pollutant
Not available.

Snow Depth

Station Depth Elevation

Earthquake Activity

City Distance Mag. Time & Date
Minimum magnitude displayed is 2.5.

Coastal Water Temperatures

Place Temperature

Stations

Nearby Weather Stations

Station Location Temp. Windchill Dew Point Humidity Wind Precip. Elev Updated Type
                   

Watches & Warnings

There are currently no watches in effect.